map of YZS home
YZS - Airport
Location
City:  Coral Harbour, Southampton Island, Nunavut, Canada
Name:Coral Harbour Airport
ICAO:CYZS
IATA:YZS

Details
Type:Airport (Airfield)
Use:Public/Civil
Latitude:6411'36"N (64.193333)
Longitude:8321'34"W (-83.359443)
Elevation:204 ft (62 m)
Variation:18.00W (WMM2015v2 magnetic declination)
0.40 annual change
Runways:1
Longest:5006 ft (1526 m)

Time
Time Zone:UTC-5 (DST-4)
Local Time:

Weather
METAR:CYZS 041400Z 35008KT 3SM -SN SCT030 BKN100 M29/M32 A2977 RMK SC3AC4 SLP095
TAF:CYZS 041238Z 0413/0501 01008KT P6SM IC SCT060 BKN110
TEMPO 0413/0501 3SM -SN BR FEW005 SCT020 BKN060
RMK NXT FCST BY 041900Z

Related Locations
Nearby:
Farthest:YWKS: 11973 mi / 19268 km
Wilkins Runway (Casey), Upper Peterson Glacier, AQ

Find:

   beyond  
but within

Other Information
Maps:
NOTAMs:
Links:
Sources:

  
  • flag of Canada
  • flag of Nunavut
  

Airport Diagram

Airport diagram for YZS

Airport diagram PDF

Sectional Chart

Flight Planning
at skyvector.com

Satellite Image

Google Maps Satellite view

 

Copyright © 2004-2019 Karl L. Swartz. All rights reserved.
The Great Circle Mapper name and logo are trademarks of the Great Circle Mapper.
All other trademarks mentioned herein belong to their respective owners.
Please see credits for attibutions and further copyright information.

  Follow gcmap on Facebook Follow gcmap on Twitter GCmap on LinkedIn

hCard Microformat

Geo Microformat